DAL553 KLAS-KLAX
Flight info
| Callsign | DAL553 |
|---|---|
| Flight time | 0h 41m |
| Altitude | 26000 |
| Route | RADYR2 BLAQQ SHTNR ANJLL4 |
| Aircraft | B739/M-SDE2E3FGHIRWXY/LB1 |
Departure
| Time | 2026-05-07 19:38 |
|---|---|
| Airport | Harry Reid International Airport (KLAS) |
Arrival
| Time | 2026-05-07 20:20 |
|---|---|
| Airport | Los Angeles International Airport (KLAX) |
| Time | Latitude | Longitude | Altitude | Speed | Heading |
|---|---|---|---|---|---|
| 2026-05-07 19:06 | 36.07989 | -115.13959 | 2092 ft | 0 kts | 352° |
| 2026-05-07 19:29 | 36.07971 | -115.13956 | 2092 ft | 4 kts | 352° |
| 2026-05-07 19:29 | 36.07945 | -115.13952 | 2092 ft | 3 kts | 352° |
| 2026-05-07 19:30 | 36.07922 | -115.13945 | 2092 ft | 4 kts | 322° |
| 2026-05-07 19:30 | 36.07911 | -115.13920 | 2092 ft | 4 kts | 272° |
| 2026-05-07 19:30 | 36.07910 | -115.13901 | 2092 ft | 1 kts | 269° |
| 2026-05-07 19:30 | 36.07910 | -115.13899 | 2092 ft | 0 kts | 269° |
| 2026-05-07 19:33 | 36.07897 | -115.13933 | 2092 ft | 10 kts | 226° |
| 2026-05-07 19:33 | 36.07831 | -115.13902 | 2092 ft | 14 kts | 102° |
| 2026-05-07 19:33 | 36.07829 | -115.13784 | 2092 ft | 15 kts | 90° |
| 2026-05-07 19:34 | 36.07830 | -115.13640 | 2091 ft | 19 kts | 89° |
| 2026-05-07 19:34 | 36.07829 | -115.13472 | 2090 ft | 20 kts | 91° |
| 2026-05-07 19:34 | 36.07829 | -115.13301 | 2087 ft | 20 kts | 91° |
| 2026-05-07 19:34 | 36.07828 | -115.13134 | 2082 ft | 20 kts | 90° |
| 2026-05-07 19:35 | 36.07828 | -115.12952 | 2071 ft | 23 kts | 90° |
| 2026-05-07 19:35 | 36.07830 | -115.12745 | 2066 ft | 25 kts | 88° |
| 2026-05-07 19:35 | 36.07829 | -115.12527 | 2059 ft | 26 kts | 90° |
| 2026-05-07 19:35 | 36.07830 | -115.12335 | 2054 ft | 21 kts | 89° |
| 2026-05-07 19:36 | 36.07777 | -115.12193 | 2050 ft | 16 kts | 128° |
| 2026-05-07 19:36 | 36.07740 | -115.12138 | 2048 ft | 0 kts | 144° |
| 2026-05-07 19:36 | 36.07739 | -115.12138 | 2048 ft | 1 kts | 146° |
| 2026-05-07 19:36 | 36.07696 | -115.12124 | 2048 ft | 12 kts | 174° |
| 2026-05-07 19:37 | 36.07641 | -115.12194 | 2054 ft | 16 kts | 268° |
| 2026-05-07 19:37 | 36.07642 | -115.12647 | 2064 ft | 94 kts | 270° |
| 2026-05-07 19:37 | 36.07641 | -115.13776 | 2092 ft | 163 kts | 270° |
| 2026-05-07 19:37 | 36.07643 | -115.15400 | 2277 ft | 209 kts | 271° |
| 2026-05-07 19:38 | 36.07653 | -115.17340 | 2730 ft | 240 kts | 271° |
| 2026-05-07 19:38 | 36.07669 | -115.19425 | 3621 ft | 245 kts | 268° |
| 2026-05-07 19:38 | 36.07477 | -115.21488 | 4526 ft | 244 kts | 259° |
| 2026-05-07 19:38 | 36.07132 | -115.23548 | 5075 ft | 248 kts | 259° |
| 2026-05-07 19:39 | 36.06543 | -115.25559 | 5452 ft | 256 kts | 232° |
| 2026-05-07 19:39 | 36.05097 | -115.26833 | 5851 ft | 264 kts | 202° |
| 2026-05-07 19:39 | 36.03310 | -115.27627 | 6138 ft | 279 kts | 200° |
| 2026-05-07 19:39 | 36.01463 | -115.28430 | 6836 ft | 282 kts | 201° |
| 2026-05-07 19:40 | 35.99600 | -115.29267 | 7503 ft | 287 kts | 199° |
| 2026-05-07 19:40 | 35.97696 | -115.29896 | 8048 ft | 286 kts | 193° |
| 2026-05-07 19:40 | 35.95707 | -115.30380 | 8591 ft | 296 kts | 192° |
| 2026-05-07 19:40 | 35.93666 | -115.30848 | 9302 ft | 299 kts | 190° |
| 2026-05-07 19:41 | 35.91600 | -115.31280 | 10002 ft | 304 kts | 192° |
| 2026-05-07 19:41 | 35.89492 | -115.31776 | 10428 ft | 316 kts | 192° |
| 2026-05-07 19:41 | 35.87261 | -115.32338 | 10577 ft | 339 kts | 191° |
| 2026-05-07 19:41 | 35.84909 | -115.32931 | 11007 ft | 349 kts | 192° |
| 2026-05-07 19:42 | 35.82514 | -115.33530 | 11685 ft | 350 kts | 191° |
| 2026-05-07 19:42 | 35.80118 | -115.34103 | 12371 ft | 353 kts | 191° |
| 2026-05-07 19:42 | 35.77697 | -115.34726 | 12957 ft | 359 kts | 191° |
| 2026-05-07 19:42 | 35.75228 | -115.35335 | 13607 ft | 363 kts | 190° |
| 2026-05-07 19:43 | 35.72730 | -115.35915 | 14247 ft | 366 kts | 188° |
| 2026-05-07 19:43 | 35.70208 | -115.36474 | 14863 ft | 370 kts | 190° |
| 2026-05-07 19:43 | 35.67668 | -115.37104 | 15484 ft | 375 kts | 191° |
| 2026-05-07 19:43 | 35.65104 | -115.37754 | 16103 ft | 379 kts | 191° |
| 2026-05-07 19:44 | 35.62503 | -115.38412 | 16729 ft | 383 kts | 191° |
| 2026-05-07 19:44 | 35.59865 | -115.38859 | 17295 ft | 387 kts | 178° |
| 2026-05-07 19:44 | 35.57171 | -115.38639 | 17941 ft | 389 kts | 174° |
| 2026-05-07 19:44 | 35.54455 | -115.38372 | 18524 ft | 393 kts | 174° |
| 2026-05-07 19:45 | 35.51711 | -115.38139 | 19051 ft | 398 kts | 175° |
| 2026-05-07 19:45 | 35.48936 | -115.37933 | 19592 ft | 401 kts | 175° |
| 2026-05-07 19:45 | 35.46140 | -115.37744 | 20144 ft | 405 kts | 177° |
| 2026-05-07 19:45 | 35.43316 | -115.38149 | 20566 ft | 413 kts | 198° |
| 2026-05-07 19:46 | 35.40709 | -115.39618 | 21237 ft | 412 kts | 208° |
| 2026-05-07 19:46 | 35.38184 | -115.41274 | 21914 ft | 412 kts | 208° |
| 2026-05-07 19:46 | 35.35657 | -115.42942 | 22514 ft | 414 kts | 208° |
| 2026-05-07 19:46 | 35.33114 | -115.44608 | 23145 ft | 415 kts | 208° |
| 2026-05-07 19:47 | 35.30567 | -115.46259 | 23814 ft | 414 kts | 208° |
| 2026-05-07 19:47 | 35.28021 | -115.47897 | 24441 ft | 412 kts | 208° |
| 2026-05-07 19:47 | 35.25492 | -115.49515 | 25046 ft | 411 kts | 208° |
| 2026-05-07 19:47 | 35.22956 | -115.51134 | 25582 ft | 411 kts | 208° |
| 2026-05-07 19:48 | 35.20422 | -115.52751 | 26074 ft | 413 kts | 208° |
| 2026-05-07 19:48 | 35.17842 | -115.54396 | 25986 ft | 420 kts | 208° |
| 2026-05-07 19:48 | 35.15270 | -115.56035 | 26047 ft | 414 kts | 208° |
| 2026-05-07 19:48 | 35.12750 | -115.57694 | 26004 ft | 410 kts | 214° |
| 2026-05-07 19:49 | 35.10632 | -115.59978 | 26064 ft | 405 kts | 229° |
| 2026-05-07 19:49 | 35.08717 | -115.62509 | 26099 ft | 409 kts | 229° |
| 2026-05-07 19:49 | 35.06765 | -115.65065 | 26031 ft | 413 kts | 228° |
| 2026-05-07 19:49 | 35.04789 | -115.67623 | 26033 ft | 414 kts | 228° |
| 2026-05-07 19:50 | 35.02799 | -115.70180 | 26023 ft | 413 kts | 228° |
| 2026-05-07 19:50 | 35.00829 | -115.72698 | 26017 ft | 409 kts | 228° |
| 2026-05-07 19:50 | 34.98870 | -115.75193 | 26020 ft | 406 kts | 228° |
| 2026-05-07 19:50 | 34.96912 | -115.77685 | 26023 ft | 408 kts | 227° |
| 2026-05-07 19:51 | 34.94946 | -115.80185 | 26014 ft | 409 kts | 227° |
| 2026-05-07 19:51 | 34.92980 | -115.82684 | 26012 ft | 409 kts | 227° |
| 2026-05-07 19:51 | 34.91035 | -115.85154 | 26019 ft | 409 kts | 227° |
| 2026-05-07 19:51 | 34.89034 | -115.87693 | 26014 ft | 410 kts | 227° |
| 2026-05-07 19:52 | 34.87057 | -115.90200 | 26007 ft | 410 kts | 227° |
| 2026-05-07 19:52 | 34.85112 | -115.92666 | 26008 ft | 410 kts | 227° |
| 2026-05-07 19:52 | 34.83139 | -115.95166 | 25998 ft | 410 kts | 227° |
| 2026-05-07 19:52 | 34.81165 | -115.97665 | 26005 ft | 409 kts | 227° |
| 2026-05-07 19:53 | 34.79192 | -116.00161 | 26019 ft | 409 kts | 227° |
| 2026-05-07 19:53 | 34.77223 | -116.02648 | 25998 ft | 409 kts | 227° |
| 2026-05-07 19:53 | 34.75253 | -116.05149 | 26009 ft | 408 kts | 228° |
| 2026-05-07 19:53 | 34.73290 | -116.07649 | 26000 ft | 409 kts | 228° |
| 2026-05-07 19:54 | 34.71330 | -116.10149 | 25998 ft | 408 kts | 228° |
| 2026-05-07 19:54 | 34.69375 | -116.12640 | 26005 ft | 408 kts | 228° |
| 2026-05-07 19:54 | 34.67411 | -116.15141 | 25981 ft | 409 kts | 227° |
| 2026-05-07 19:54 | 34.65451 | -116.17633 | 25999 ft | 408 kts | 227° |
| 2026-05-07 19:55 | 34.63487 | -116.20128 | 25986 ft | 408 kts | 227° |
| 2026-05-07 19:55 | 34.61534 | -116.22607 | 25995 ft | 407 kts | 227° |
| 2026-05-07 19:55 | 34.59566 | -116.25103 | 26001 ft | 407 kts | 227° |
| 2026-05-07 19:55 | 34.57610 | -116.27582 | 25981 ft | 408 kts | 227° |
| 2026-05-07 19:56 | 34.55646 | -116.30070 | 25986 ft | 408 kts | 227° |
| 2026-05-07 19:56 | 34.53686 | -116.32551 | 25993 ft | 407 kts | 227° |
| 2026-05-07 19:56 | 34.51725 | -116.35030 | 25991 ft | 407 kts | 227° |
| 2026-05-07 19:56 | 34.49766 | -116.37507 | 25997 ft | 407 kts | 227° |
| 2026-05-07 19:57 | 34.47816 | -116.39970 | 25869 ft | 403 kts | 227° |
| 2026-05-07 19:57 | 34.45879 | -116.42415 | 25552 ft | 399 kts | 227° |
| 2026-05-07 19:57 | 34.43981 | -116.44807 | 25356 ft | 390 kts | 227° |
| 2026-05-07 19:57 | 34.42119 | -116.47171 | 25086 ft | 384 kts | 230° |
| 2026-05-07 19:58 | 34.40678 | -116.49847 | 24748 ft | 377 kts | 247° |
| 2026-05-07 19:58 | 34.39568 | -116.52672 | 24642 ft | 369 kts | 247° |
| 2026-05-07 19:58 | 34.38454 | -116.55478 | 24362 ft | 368 kts | 246° |
| 2026-05-07 19:58 | 34.37333 | -116.58256 | 24140 ft | 368 kts | 246° |
| 2026-05-07 19:59 | 34.36194 | -116.61044 | 24021 ft | 370 kts | 245° |
| 2026-05-07 19:59 | 34.35047 | -116.63828 | 24015 ft | 371 kts | 245° |
| 2026-05-07 19:59 | 34.33899 | -116.66607 | 24015 ft | 375 kts | 245° |
| 2026-05-07 19:59 | 34.32741 | -116.69426 | 23896 ft | 374 kts | 246° |
| 2026-05-07 20:00 | 34.31602 | -116.72249 | 23558 ft | 371 kts | 246° |
| 2026-05-07 20:00 | 34.30481 | -116.75046 | 23167 ft | 370 kts | 246° |
| 2026-05-07 20:00 | 34.29361 | -116.77840 | 22740 ft | 368 kts | 246° |
| 2026-05-07 20:00 | 34.28246 | -116.80618 | 22351 ft | 366 kts | 246° |
| 2026-05-07 20:01 | 34.27135 | -116.83382 | 21953 ft | 364 kts | 246° |
| 2026-05-07 20:01 | 34.26030 | -116.86123 | 21571 ft | 362 kts | 246° |
| 2026-05-07 20:01 | 34.24927 | -116.88859 | 21186 ft | 361 kts | 246° |
| 2026-05-07 20:01 | 34.23827 | -116.91582 | 20813 ft | 360 kts | 246° |
| 2026-05-07 20:02 | 34.22728 | -116.94301 | 20427 ft | 359 kts | 245° |
| 2026-05-07 20:02 | 34.21633 | -116.97008 | 20045 ft | 359 kts | 245° |
| 2026-05-07 20:02 | 34.20604 | -116.99745 | 19618 ft | 357 kts | 251° |
| 2026-05-07 20:02 | 34.19819 | -117.02597 | 19219 ft | 357 kts | 255° |
| 2026-05-07 20:03 | 34.19107 | -117.05471 | 18837 ft | 356 kts | 256° |
| 2026-05-07 20:03 | 34.18384 | -117.08327 | 18434 ft | 356 kts | 255° |
| 2026-05-07 20:03 | 34.17630 | -117.11183 | 17942 ft | 357 kts | 254° |
| 2026-05-07 20:03 | 34.16875 | -117.14039 | 17523 ft | 356 kts | 253° |
| 2026-05-07 20:04 | 34.16080 | -117.16857 | 17135 ft | 354 kts | 253° |
| 2026-05-07 20:04 | 34.15311 | -117.19660 | 16778 ft | 351 kts | 252° |
| 2026-05-07 20:04 | 34.14543 | -117.22453 | 16387 ft | 349 kts | 253° |
| 2026-05-07 20:04 | 34.13783 | -117.25225 | 16015 ft | 347 kts | 253° |
| 2026-05-07 20:05 | 34.13029 | -117.27966 | 15635 ft | 340 kts | 253° |
| 2026-05-07 20:05 | 34.12291 | -117.30642 | 15258 ft | 332 kts | 253° |
| 2026-05-07 20:05 | 34.11572 | -117.33246 | 14906 ft | 323 kts | 252° |
| 2026-05-07 20:05 | 34.11094 | -117.34975 | 14670 ft | 318 kts | 252° |
| 2026-05-07 20:06 | 34.10415 | -117.37444 | 14333 ft | 311 kts | 253° |
| 2026-05-07 20:06 | 34.09787 | -117.39911 | 14003 ft | 304 kts | 255° |
| 2026-05-07 20:06 | 34.09191 | -117.42330 | 13646 ft | 298 kts | 255° |
| 2026-05-07 20:06 | 34.08604 | -117.44699 | 13304 ft | 293 kts | 255° |
| 2026-05-07 20:07 | 34.08016 | -117.47060 | 12993 ft | 297 kts | 255° |
| 2026-05-07 20:07 | 34.07410 | -117.49483 | 12647 ft | 307 kts | 254° |
| 2026-05-07 20:07 | 34.06778 | -117.51980 | 12292 ft | 315 kts | 254° |
| 2026-05-07 20:07 | 34.06125 | -117.54501 | 11934 ft | 315 kts | 254° |
| 2026-05-07 20:08 | 34.05491 | -117.57025 | 11581 ft | 314 kts | 254° |
| 2026-05-07 20:08 | 34.04863 | -117.59536 | 11236 ft | 312 kts | 255° |
| 2026-05-07 20:08 | 34.04269 | -117.61919 | 10916 ft | 311 kts | 254° |
| 2026-05-07 20:08 | 34.03617 | -117.64397 | 10568 ft | 310 kts | 253° |
| 2026-05-07 20:09 | 34.02971 | -117.66862 | 10225 ft | 308 kts | 255° |
| 2026-05-07 20:09 | 34.02337 | -117.69316 | 10025 ft | 302 kts | 256° |
| 2026-05-07 20:09 | 34.01902 | -117.71756 | 9811 ft | 291 kts | 266° |
| 2026-05-07 20:10 | 34.01524 | -117.76531 | 9086 ft | 282 kts | 265° |
| 2026-05-07 20:10 | 34.01318 | -117.78868 | 8723 ft | 278 kts | 265° |
| 2026-05-07 20:10 | 34.01100 | -117.81169 | 8420 ft | 276 kts | 264° |
| 2026-05-07 20:10 | 34.00879 | -117.83458 | 8118 ft | 275 kts | 265° |
| 2026-05-07 20:11 | 34.00657 | -117.85748 | 7801 ft | 274 kts | 264° |
| 2026-05-07 20:11 | 34.00434 | -117.88022 | 7498 ft | 273 kts | 264° |
| 2026-05-07 20:11 | 34.00212 | -117.90282 | 7193 ft | 272 kts | 264° |
| 2026-05-07 20:11 | 33.99992 | -117.92526 | 6878 ft | 271 kts | 264° |
| 2026-05-07 20:12 | 33.99770 | -117.94791 | 6575 ft | 270 kts | 264° |
| 2026-05-07 20:12 | 33.99550 | -117.97038 | 6257 ft | 269 kts | 264° |
| 2026-05-07 20:12 | 33.99330 | -117.99271 | 5942 ft | 268 kts | 264° |
| 2026-05-07 20:12 | 33.99109 | -118.01502 | 5556 ft | 269 kts | 263° |
| 2026-05-07 20:13 | 33.98886 | -118.03729 | 5249 ft | 267 kts | 263° |
| 2026-05-07 20:13 | 33.98671 | -118.05883 | 5156 ft | 252 kts | 263° |
| 2026-05-07 20:13 | 33.98467 | -118.07928 | 5073 ft | 238 kts | 263° |
| 2026-05-07 20:13 | 33.98276 | -118.09832 | 4988 ft | 221 kts | 264° |
| 2026-05-07 20:14 | 33.98097 | -118.11616 | 4867 ft | 207 kts | 264° |
| 2026-05-07 20:14 | 33.97931 | -118.13273 | 4785 ft | 191 kts | 264° |
| 2026-05-07 20:14 | 33.97778 | -118.14806 | 4637 ft | 178 kts | 264° |
| 2026-05-07 20:14 | 33.97630 | -118.16287 | 4295 ft | 179 kts | 264° |
| 2026-05-07 20:15 | 33.97483 | -118.17748 | 4032 ft | 175 kts | 264° |
| 2026-05-07 20:15 | 33.97335 | -118.19234 | 3600 ft | 180 kts | 264° |
| 2026-05-07 20:15 | 33.97187 | -118.20718 | 3314 ft | 175 kts | 265° |
| 2026-05-07 20:15 | 33.97042 | -118.22159 | 2941 ft | 177 kts | 264° |
| 2026-05-07 20:16 | 33.96895 | -118.23609 | 2729 ft | 172 kts | 263° |
| 2026-05-07 20:16 | 33.96748 | -118.25071 | 2513 ft | 172 kts | 263° |
| 2026-05-07 20:16 | 33.96611 | -118.26423 | 2366 ft | 155 kts | 263° |
| 2026-05-07 20:16 | 33.96479 | -118.27723 | 2244 ft | 154 kts | 262° |
| 2026-05-07 20:17 | 33.96356 | -118.28978 | 2137 ft | 152 kts | 262° |
| 2026-05-07 20:17 | 33.96230 | -118.30254 | 1888 ft | 151 kts | 261° |
| 2026-05-07 20:17 | 33.96122 | -118.31482 | 1650 ft | 144 kts | 260° |
| 2026-05-07 20:17 | 33.95993 | -118.32670 | 1440 ft | 141 kts | 261° |
| 2026-05-07 20:18 | 33.95877 | -118.33839 | 1231 ft | 143 kts | 262° |
| 2026-05-07 20:18 | 33.95746 | -118.35021 | 1093 ft | 140 kts | 261° |
| 2026-05-07 20:18 | 33.95620 | -118.36182 | 914 ft | 140 kts | 262° |
| 2026-05-07 20:18 | 33.95512 | -118.37347 | 732 ft | 138 kts | 261° |
| 2026-05-07 20:19 | 33.95381 | -118.38486 | 472 ft | 137 kts | 261° |
| 2026-05-07 20:19 | 33.95263 | -118.39634 | 248 ft | 138 kts | 262° |
| 2026-05-07 20:19 | 33.95153 | -118.40753 | 91 ft | 128 kts | 262° |
| 2026-05-07 20:19 | 33.95063 | -118.41608 | 94 ft | 74 kts | 262° |
| 2026-05-07 20:20 | 33.94999 | -118.42088 | 92 ft | 47 kts | 247° |
| 2026-05-07 20:20 | 33.94891 | -118.42237 | 94 ft | 13 kts | 217° |
| 2026-05-07 20:20 | 33.94808 | -118.42271 | 95 ft | 13 kts | 183° |
| 2026-05-07 20:20 | 33.94707 | -118.42258 | 93 ft | 17 kts | 150° |
| 2026-05-07 20:21 | 33.94695 | -118.42114 | 94 ft | 20 kts | 83° |
| 2026-05-07 20:21 | 33.94712 | -118.41927 | 92 ft | 25 kts | 84° |
| 2026-05-07 20:21 | 33.94735 | -118.41716 | 94 ft | 24 kts | 82° |
| 2026-05-07 20:21 | 33.94756 | -118.41501 | 93 ft | 27 kts | 82° |
| 2026-05-07 20:22 | 33.94795 | -118.41280 | 93 ft | 21 kts | 82° |
| 2026-05-07 20:22 | 33.94811 | -118.41105 | 94 ft | 19 kts | 83° |
| 2026-05-07 20:22 | 33.94829 | -118.40929 | 94 ft | 23 kts | 84° |
| 2026-05-07 20:22 | 33.94851 | -118.40721 | 94 ft | 27 kts | 83° |
| 2026-05-07 20:23 | 33.94818 | -118.40599 | 93 ft | 15 kts | 166° |
| 2026-05-07 20:23 | 33.94719 | -118.40593 | 94 ft | 14 kts | 178° |
| 2026-05-07 20:23 | 33.94647 | -118.40600 | 91 ft | 4 kts | 238° |
| 2026-05-07 20:23 | 33.94642 | -118.40634 | 92 ft | 4 kts | 261° |
| 2026-05-07 20:24 | 33.94642 | -118.40637 | 92 ft | 0 kts | 262° |